sensor_id;sensor_type;location;lat;lon;timestamp;temperature;humidity
31113;DHT22;17763;48.730;9.136;2023-03-02T00:07:00;2.70;98.30
31113;DHT22;17763;48.730;9.136;2023-03-02T00:09:27;2.60;98.50
31113;DHT22;17763;48.730;9.136;2023-03-02T00:11:53;2.60;98.70
31113;DHT22;17763;48.730;9.136;2023-03-02T00:14:19;2.50;98.90
31113;DHT22;17763;48.730;9.136;2023-03-02T00:16:47;2.50;99.10
31113;DHT22;17763;48.730;9.136;2023-03-02T00:19:12;2.50;99.30
31113;DHT22;17763;48.730;9.136;2023-03-02T00:21:38;2.50;99.50
31113;DHT22;17763;48.730;9.136;2023-03-02T00:24:07;2.40;99.70
31113;DHT22;17763;48.730;9.136;2023-03-02T00:26:33;2.40;99.90
31113;DHT22;17763;48.730;9.136;2023-03-02T00:29:00;2.30;99.90
31113;DHT22;17763;48.730;9.136;2023-03-02T00:31:25;2.30;99.90
31113;DHT22;17763;48.730;9.136;2023-03-02T00:33:53;2.30;99.90
31113;DHT22;17763;48.730;9.136;2023-03-02T00:36:22;2.30;99.90
31113;DHT22;17763;48.730;9.136;2023-03-02T00:38:48;2.20;99.90
31113;DHT22;17763;48.730;9.136;2023-03-02T00:41:17;2.20;99.90
31113;DHT22;17763;48.730;9.136;2023-03-02T00:43:47;2.10;99.90
31113;DHT22;17763;48.730;9.136;2023-03-02T00:46:17;2.10;99.90
31113;DHT22;17763;48.730;9.136;2023-03-02T00:48:44;2.10;99.90
31113;DHT22;17763;48.730;9.136;2023-03-02T00:51:10;2.10;99.90
31113;DHT22;17763;48.730;9.136;2023-03-02T00:53:37;2.10;99.90
31113;DHT22;17763;48.730;9.136;2023-03-02T00:56:03;2.10;99.90
31113;DHT22;17763;48.730;9.136;2023-03-02T00:58:30;2.00;99.90
31113;DHT22;17763;48.730;9.136;2023-03-02T01:00:56;2.00;99.90
31113;DHT22;17763;48.730;9.136;2023-03-02T01:03:24;2.00;99.90
31113;DHT22;17763;48.730;9.136;2023-03-02T01:05:50;1.90;99.90
31113;DHT22;17763;48.730;9.136;2023-03-02T01:08:22;1.90;99.90
31113;DHT22;17763;48.730;9.136;2023-03-02T01:10:49;1.80;99.90
31113;DHT22;17763;48.730;9.136;2023-03-02T01:13:16;1.80;99.90
31113;DHT22;17763;48.730;9.136;2023-03-02T01:15:42;1.80;99.90
31113;DHT22;17763;48.730;9.136;2023-03-02T01:18:07;1.70;99.90
31113;DHT22;17763;48.730;9.136;2023-03-02T01:20:33;1.70;99.90
31113;DHT22;17763;48.730;9.136;2023-03-02T01:23:01;1.70;99.90
31113;DHT22;17763;48.730;9.136;2023-03-02T01:25:27;1.70;99.90
31113;DHT22;17763;48.730;9.136;2023-03-02T01:27:52;1.60;99.90
31113;DHT22;17763;48.730;9.136;2023-03-02T01:30:18;1.70;99.90
31113;DHT22;17763;48.730;9.136;2023-03-02T01:32:44;1.60;99.90
31113;DHT22;17763;48.730;9.136;2023-03-02T01:35:09;1.60;99.90
31113;DHT22;17763;48.730;9.136;2023-03-02T01:37:35;1.60;99.90
31113;DHT22;17763;48.730;9.136;2023-03-02T01:40:01;1.60;99.90
31113;DHT22;17763;48.730;9.136;2023-03-02T01:42:38;1.50;99.90
31113;DHT22;17763;48.730;9.136;2023-03-02T01:45:37;1.50;99.90
31113;DHT22;17763;48.730;9.136;2023-03-02T01:47:50;1.50;99.90
31113;DHT22;17763;48.730;9.136;2023-03-02T01:50:20;1.50;99.90
31113;DHT22;17763;48.730;9.136;2023-03-02T01:52:48;1.50;99.90
31113;DHT22;17763;48.730;9.136;2023-03-02T01:55:18;1.40;99.90
31113;DHT22;17763;48.730;9.136;2023-03-02T01:57:48;1.40;99.90
31113;DHT22;17763;48.730;9.136;2023-03-02T02:00:19;1.40;99.90
31113;DHT22;17763;48.730;9.136;2023-03-02T02:02:46;1.40;99.90
31113;DHT22;17763;48.730;9.136;2023-03-02T02:05:16;1.30;99.90
31113;DHT22;17763;48.730;9.136;2023-03-02T02:07:43;1.30;99.90
31113;DHT22;17763;48.730;9.136;2023-03-02T02:10:09;1.30;99.90
31113;DHT22;17763;48.730;9.136;2023-03-02T02:12:35;1.30;99.90
31113;DHT22;17763;48.730;9.136;2023-03-02T02:15:02;1.30;99.90
31113;DHT22;17763;48.730;9.136;2023-03-02T02:17:29;1.20;99.90
31113;DHT22;17763;48.730;9.136;2023-03-02T02:20:27;1.20;99.90
31113;DHT22;17763;48.730;9.136;2023-03-02T02:30:54;1.20;99.90
31113;DHT22;17763;48.730;9.136;2023-03-02T02:33:23;1.20;99.90
31113;DHT22;17763;48.730;9.136;2023-03-02T02:36:02;1.20;99.90
31113;DHT22;17763;48.730;9.136;2023-03-02T02:38:29;1.10;99.90
31113;DHT22;17763;48.730;9.136;2023-03-02T02:40:57;1.10;99.90
31113;DHT22;17763;48.730;9.136;2023-03-02T02:43:26;1.10;99.90
31113;DHT22;17763;48.730;9.136;2023-03-02T02:45:55;1.10;99.90
31113;DHT22;17763;48.730;9.136;2023-03-02T02:48:22;1.00;99.90
31113;DHT22;17763;48.730;9.136;2023-03-02T02:50:50;1.00;99.90
31113;DHT22;17763;48.730;9.136;2023-03-02T02:53:47;1.00;99.90
31113;DHT22;17763;48.730;9.136;2023-03-02T02:56:14;1.00;99.90
31113;DHT22;17763;48.730;9.136;2023-03-02T02:58:47;1.00;99.90
31113;DHT22;17763;48.730;9.136;2023-03-02T03:01:16;0.90;99.90
31113;DHT22;17763;48.730;9.136;2023-03-02T03:03:51;0.90;99.90
31113;DHT22;17763;48.730;9.136;2023-03-02T03:06:21;0.90;99.90
31113;DHT22;17763;48.730;9.136;2023-03-02T03:08:54;0.90;99.90
31113;DHT22;17763;48.730;9.136;2023-03-02T03:11:27;0.90;99.90
31113;DHT22;17763;48.730;9.136;2023-03-02T03:14:05;0.90;99.90
31113;DHT22;17763;48.730;9.136;2023-03-02T03:16:34;0.90;99.90
31113;DHT22;17763;48.730;9.136;2023-03-02T03:19:26;0.90;99.90
31113;DHT22;17763;48.730;9.136;2023-03-02T03:21:54;0.90;99.90
31113;DHT22;17763;48.730;9.136;2023-03-02T03:24:21;0.80;99.90
31113;DHT22;17763;48.730;9.136;2023-03-02T03:26:47;0.90;99.90
31113;DHT22;17763;48.730;9.136;2023-03-02T03:29:16;0.80;99.90
31113;DHT22;17763;48.730;9.136;2023-03-02T03:31:45;0.80;99.90
31113;DHT22;17763;48.730;9.136;2023-03-02T03:34:10;0.80;99.90
31113;DHT22;17763;48.730;9.136;2023-03-02T03:36:36;0.80;99.90
31113;DHT22;17763;48.730;9.136;2023-03-02T03:39:04;0.80;99.90
31113;DHT22;17763;48.730;9.136;2023-03-02T03:41:34;0.80;99.90
31113;DHT22;17763;48.730;9.136;2023-03-02T03:44:00;0.80;99.90
31113;DHT22;17763;48.730;9.136;2023-03-02T03:46:26;0.80;99.90
31113;DHT22;17763;48.730;9.136;2023-03-02T03:48:52;0.80;99.90
31113;DHT22;17763;48.730;9.136;2023-03-02T03:51:18;0.70;99.90
31113;DHT22;17763;48.730;9.136;2023-03-02T03:53:43;0.70;99.90
31113;DHT22;17763;48.730;9.136;2023-03-02T03:56:09;0.70;99.90
31113;DHT22;17763;48.730;9.136;2023-03-02T03:58:35;0.70;99.90
31113;DHT22;17763;48.730;9.136;2023-03-02T04:01:01;0.80;99.90
31113;DHT22;17763;48.730;9.136;2023-03-02T04:03:26;0.70;99.90
31113;DHT22;17763;48.730;9.136;2023-03-02T04:05:54;0.70;99.90
31113;DHT22;17763;48.730;9.136;2023-03-02T04:08:20;0.80;99.90
31113;DHT22;17763;48.730;9.136;2023-03-02T04:10:51;0.80;99.90
31113;DHT22;17763;48.730;9.136;2023-03-02T04:13:16;0.70;99.90
31113;DHT22;17763;48.730;9.136;2023-03-02T04:15:43;0.70;99.90
31113;DHT22;17763;48.730;9.136;2023-03-02T04:18:09;0.70;99.90
31113;DHT22;17763;48.730;9.136;2023-03-02T04:20:37;0.70;99.90
31113;DHT22;17763;48.730;9.136;2023-03-02T04:23:03;0.70;99.90
31113;DHT22;17763;48.730;9.136;2023-03-02T04:25:29;0.60;99.90
31113;DHT22;17763;48.730;9.136;2023-03-02T04:27:55;0.60;99.90
31113;DHT22;17763;48.730;9.136;2023-03-02T04:30:23;0.60;99.90
31113;DHT22;17763;48.730;9.136;2023-03-02T04:32:52;0.60;99.90
31113;DHT22;17763;48.730;9.136;2023-03-02T04:35:18;0.60;99.90
31113;DHT22;17763;48.730;9.136;2023-03-02T04:37:44;0.60;99.90
31113;DHT22;17763;48.730;9.136;2023-03-02T04:40:11;0.60;99.90
31113;DHT22;17763;48.730;9.136;2023-03-02T04:42:39;0.60;99.90
31113;DHT22;17763;48.730;9.136;2023-03-02T04:45:06;0.60;99.90
31113;DHT22;17763;48.730;9.136;2023-03-02T04:47:32;0.50;99.90
31113;DHT22;17763;48.730;9.136;2023-03-02T04:49:57;0.50;99.90
31113;DHT22;17763;48.730;9.136;2023-03-02T04:52:26;0.50;99.90
31113;DHT22;17763;48.730;9.136;2023-03-02T04:54:51;0.50;99.90
31113;DHT22;17763;48.730;9.136;2023-03-02T04:57:17;0.50;99.90
31113;DHT22;17763;48.730;9.136;2023-03-02T04:59:43;0.50;99.90
31113;DHT22;17763;48.730;9.136;2023-03-02T05:02:09;0.40;99.90
31113;DHT22;17763;48.730;9.136;2023-03-02T05:04:35;0.40;99.90
31113;DHT22;17763;48.730;9.136;2023-03-02T05:07:01;0.40;99.90
31113;DHT22;17763;48.730;9.136;2023-03-02T05:09:26;0.40;99.90
31113;DHT22;17763;48.730;9.136;2023-03-02T05:11:56;0.40;99.90
31113;DHT22;17763;48.730;9.136;2023-03-02T05:14:22;0.40;99.90
31113;DHT22;17763;48.730;9.136;2023-03-02T05:16:48;0.40;99.90
31113;DHT22;17763;48.730;9.136;2023-03-02T05:19:14;0.40;99.90
31113;DHT22;17763;48.730;9.136;2023-03-02T05:21:41;0.30;99.90
31113;DHT22;17763;48.730;9.136;2023-03-02T05:24:07;0.30;99.90
31113;DHT22;17763;48.730;9.136;2023-03-02T05:26:32;0.30;99.90
31113;DHT22;17763;48.730;9.136;2023-03-02T05:28:58;0.30;99.90
31113;DHT22;17763;48.730;9.136;2023-03-02T05:31:30;0.40;99.90
31113;DHT22;17763;48.730;9.136;2023-03-02T05:33:59;0.30;99.90
31113;DHT22;17763;48.730;9.136;2023-03-02T05:36:27;0.40;99.90
31113;DHT22;17763;48.730;9.136;2023-03-02T05:38:53;0.40;99.90
31113;DHT22;17763;48.730;9.136;2023-03-02T05:41:19;0.40;99.90
31113;DHT22;17763;48.730;9.136;2023-03-02T05:43:44;0.30;99.90
31113;DHT22;17763;48.730;9.136;2023-03-02T05:46:10;0.40;99.90
31113;DHT22;17763;48.730;9.136;2023-03-02T05:48:36;0.40;99.90
31113;DHT22;17763;48.730;9.136;2023-03-02T05:51:01;0.40;99.90
31113;DHT22;17763;48.730;9.136;2023-03-02T05:53:28;0.40;99.90
31113;DHT22;17763;48.730;9.136;2023-03-02T05:55:54;0.40;99.90
31113;DHT22;17763;48.730;9.136;2023-03-02T05:58:20;0.40;99.90
31113;DHT22;17763;48.730;9.136;2023-03-02T06:00:47;0.40;99.90
31113;DHT22;17763;48.730;9.136;2023-03-02T06:03:15;0.40;99.90
31113;DHT22;17763;48.730;9.136;2023-03-02T06:05:41;0.40;99.90
31113;DHT22;17763;48.730;9.136;2023-03-02T06:08:07;0.40;99.90
31113;DHT22;17763;48.730;9.136;2023-03-02T06:10:35;0.40;99.90
31113;DHT22;17763;48.730;9.136;2023-03-02T06:13:03;0.40;99.90
31113;DHT22;17763;48.730;9.136;2023-03-02T06:15:29;0.50;99.90
31113;DHT22;17763;48.730;9.136;2023-03-02T06:17:57;0.50;99.90
31113;DHT22;17763;48.730;9.136;2023-03-02T06:20:23;0.50;99.90
31113;DHT22;17763;48.730;9.136;2023-03-02T06:22:49;0.70;99.90
31113;DHT22;17763;48.730;9.136;2023-03-02T06:25:18;0.60;99.90
31113;DHT22;17763;48.730;9.136;2023-03-02T06:27:44;0.60;99.90
31113;DHT22;17763;48.730;9.136;2023-03-02T06:30:13;0.60;99.90
31113;DHT22;17763;48.730;9.136;2023-03-02T06:32:39;0.60;99.90
31113;DHT22;17763;48.730;9.136;2023-03-02T06:35:06;0.70;99.90
31113;DHT22;17763;48.730;9.136;2023-03-02T06:37:32;0.70;99.90
31113;DHT22;17763;48.730;9.136;2023-03-02T06:40:00;0.70;99.90
31113;DHT22;17763;48.730;9.136;2023-03-02T06:42:29;0.80;99.90
31113;DHT22;17763;48.730;9.136;2023-03-02T06:44:54;0.80;99.90
31113;DHT22;17763;48.730;9.136;2023-03-02T06:47:21;0.80;99.90
31113;DHT22;17763;48.730;9.136;2023-03-02T06:49:47;0.80;99.90
31113;DHT22;17763;48.730;9.136;2023-03-02T06:52:13;0.80;99.90
31113;DHT22;17763;48.730;9.136;2023-03-02T06:54:39;0.90;99.90
31113;DHT22;17763;48.730;9.136;2023-03-02T06:57:05;0.90;99.90
31113;DHT22;17763;48.730;9.136;2023-03-02T06:59:31;1.00;99.90
31113;DHT22;17763;48.730;9.136;2023-03-02T07:01:57;0.90;99.90
31113;DHT22;17763;48.730;9.136;2023-03-02T07:04:22;0.90;99.90
31113;DHT22;17763;48.730;9.136;2023-03-02T07:06:49;0.90;99.90
31113;DHT22;17763;48.730;9.136;2023-03-02T07:09:17;1.00;99.90
31113;DHT22;17763;48.730;9.136;2023-03-02T07:11:43;0.90;99.90
31113;DHT22;17763;48.730;9.136;2023-03-02T07:14:08;1.00;99.90
31113;DHT22;17763;48.730;9.136;2023-03-02T07:16:34;1.00;99.90
31113;DHT22;17763;48.730;9.136;2023-03-02T07:19:02;1.00;99.90
31113;DHT22;17763;48.730;9.136;2023-03-02T07:21:27;1.00;99.90
31113;DHT22;17763;48.730;9.136;2023-03-02T07:23:53;1.00;99.90
31113;DHT22;17763;48.730;9.136;2023-03-02T07:26:21;1.00;99.90
31113;DHT22;17763;48.730;9.136;2023-03-02T07:28:47;1.00;99.90
31113;DHT22;17763;48.730;9.136;2023-03-02T07:31:13;1.10;99.90
31113;DHT22;17763;48.730;9.136;2023-03-02T07:33:39;1.10;99.90
31113;DHT22;17763;48.730;9.136;2023-03-02T07:36:06;1.00;99.90
31113;DHT22;17763;48.730;9.136;2023-03-02T07:38:32;1.10;99.90
31113;DHT22;17763;48.730;9.136;2023-03-02T07:40:58;1.10;99.90
31113;DHT22;17763;48.730;9.136;2023-03-02T07:43:24;1.10;99.90
31113;DHT22;17763;48.730;9.136;2023-03-02T07:45:51;1.10;99.90
31113;DHT22;17763;48.730;9.136;2023-03-02T07:48:17;1.10;99.90
31113;DHT22;17763;48.730;9.136;2023-03-02T07:50:43;1.20;99.90
31113;DHT22;17763;48.730;9.136;2023-03-02T07:53:08;1.20;99.90
31113;DHT22;17763;48.730;9.136;2023-03-02T07:55:34;1.20;99.90
31113;DHT22;17763;48.730;9.136;2023-03-02T07:58:04;1.20;99.90
31113;DHT22;17763;48.730;9.136;2023-03-02T08:00:29;1.40;99.90
31113;DHT22;17763;48.730;9.136;2023-03-02T08:02:55;1.30;99.90
31113;DHT22;17763;48.730;9.136;2023-03-02T08:05:20;1.30;99.90
31113;DHT22;17763;48.730;9.136;2023-03-02T08:07:46;1.30;99.90
31113;DHT22;17763;48.730;9.136;2023-03-02T08:10:13;1.40;99.90
31113;DHT22;17763;48.730;9.136;2023-03-02T08:12:39;1.40;99.90
31113;DHT22;17763;48.730;9.136;2023-03-02T08:15:08;1.40;99.90
31113;DHT22;17763;48.730;9.136;2023-03-02T08:17:37;1.50;99.90
31113;DHT22;17763;48.730;9.136;2023-03-02T08:20:05;1.50;99.90
31113;DHT22;17763;48.730;9.136;2023-03-02T08:22:34;1.60;99.90
31113;DHT22;17763;48.730;9.136;2023-03-02T08:25:00;1.60;99.90
31113;DHT22;17763;48.730;9.136;2023-03-02T08:27:26;1.70;99.90
31113;DHT22;17763;48.730;9.136;2023-03-02T08:29:52;1.70;99.90
31113;DHT22;17763;48.730;9.136;2023-03-02T08:32:18;1.70;99.90
31113;DHT22;17763;48.730;9.136;2023-03-02T08:34:44;1.80;99.90
31113;DHT22;17763;48.730;9.136;2023-03-02T08:37:12;1.80;99.90
31113;DHT22;17763;48.730;9.136;2023-03-02T08:39:38;1.80;99.90
31113;DHT22;17763;48.730;9.136;2023-03-02T08:42:03;1.80;99.90
31113;DHT22;17763;48.730;9.136;2023-03-02T08:44:29;1.80;99.90
31113;DHT22;17763;48.730;9.136;2023-03-02T08:46:55;1.80;99.90
31113;DHT22;17763;48.730;9.136;2023-03-02T08:49:20;1.90;99.90
31113;DHT22;17763;48.730;9.136;2023-03-02T08:51:46;1.90;99.90
31113;DHT22;17763;48.730;9.136;2023-03-02T08:54:18;2.00;99.90
31113;DHT22;17763;48.730;9.136;2023-03-02T08:56:47;2.00;99.90
31113;DHT22;17763;48.730;9.136;2023-03-02T08:59:13;2.10;99.90
31113;DHT22;17763;48.730;9.136;2023-03-02T09:01:39;2.10;99.90
31113;DHT22;17763;48.730;9.136;2023-03-02T09:04:07;2.20;99.90
31113;DHT22;17763;48.730;9.136;2023-03-02T09:06:39;2.20;99.90
31113;DHT22;17763;48.730;9.136;2023-03-02T09:09:05;2.30;99.90
31113;DHT22;17763;48.730;9.136;2023-03-02T09:11:32;2.30;99.90
31113;DHT22;17763;48.730;9.136;2023-03-02T09:13:57;2.40;99.90
31113;DHT22;17763;48.730;9.136;2023-03-02T09:16:23;2.40;99.90
31113;DHT22;17763;48.730;9.136;2023-03-02T09:18:50;2.50;99.90
31113;DHT22;17763;48.730;9.136;2023-03-02T09:21:16;2.60;99.90
31113;DHT22;17763;48.730;9.136;2023-03-02T09:23:42;2.70;99.90
31113;DHT22;17763;48.730;9.136;2023-03-02T09:26:08;2.80;99.90
31113;DHT22;17763;48.730;9.136;2023-03-02T09:28:36;2.80;99.90
31113;DHT22;17763;48.730;9.136;2023-03-02T09:31:05;2.90;99.90
31113;DHT22;17763;48.730;9.136;2023-03-02T09:33:31;3.00;99.90
31113;DHT22;17763;48.730;9.136;2023-03-02T09:35:57;3.10;99.90
31113;DHT22;17763;48.730;9.136;2023-03-02T09:38:23;3.10;99.90
31113;DHT22;17763;48.730;9.136;2023-03-02T09:44:13;3.30;99.90
31113;DHT22;17763;48.730;9.136;2023-03-02T09:46:58;3.30;99.90
31113;DHT22;17763;48.730;9.136;2023-03-02T09:54:51;3.40;99.90
31113;DHT22;17763;48.730;9.136;2023-03-02T09:57:31;3.40;99.90
31113;DHT22;17763;48.730;9.136;2023-03-02T10:00:18;3.40;99.90
31113;DHT22;17763;48.730;9.136;2023-03-02T10:02:53;3.50;99.90
31113;DHT22;17763;48.730;9.136;2023-03-02T10:05:26;3.50;99.90
31113;DHT22;17763;48.730;9.136;2023-03-02T10:07:56;3.60;99.90
31113;DHT22;17763;48.730;9.136;2023-03-02T10:13:22;3.80;99.90
31113;DHT22;17763;48.730;9.136;2023-03-02T10:18:40;3.90;99.90
31113;DHT22;17763;48.730;9.136;2023-03-02T10:24:12;4.00;99.90
31113;DHT22;17763;48.730;9.136;2023-03-02T10:31:39;4.30;99.90
31113;DHT22;17763;48.730;9.136;2023-03-02T10:34:09;4.40;99.90
31113;DHT22;17763;48.730;9.136;2023-03-02T10:36:40;4.40;99.90
31113;DHT22;17763;48.730;9.136;2023-03-02T10:39:12;4.50;99.90
31113;DHT22;17763;48.730;9.136;2023-03-02T10:41:45;4.50;99.90
31113;DHT22;17763;48.730;9.136;2023-03-02T10:44:31;4.60;99.90
31113;DHT22;17763;48.730;9.136;2023-03-02T10:46:59;4.60;99.90
31113;DHT22;17763;48.730;9.136;2023-03-02T10:49:33;4.60;99.90
31113;DHT22;17763;48.730;9.136;2023-03-02T10:52:01;4.60;99.90
31113;DHT22;17763;48.730;9.136;2023-03-02T10:54:29;4.60;99.90
31113;DHT22;17763;48.730;9.136;2023-03-02T10:57:04;4.70;99.90
31113;DHT22;17763;48.730;9.136;2023-03-02T10:59:51;4.70;99.90
31113;DHT22;17763;48.730;9.136;2023-03-02T11:02:22;4.70;99.90
31113;DHT22;17763;48.730;9.136;2023-03-02T11:04:58;4.70;99.90
31113;DHT22;17763;48.730;9.136;2023-03-02T11:07:35;4.80;99.90
31113;DHT22;17763;48.730;9.136;2023-03-02T11:10:03;4.90;99.90
31113;DHT22;17763;48.730;9.136;2023-03-02T11:12:30;5.00;99.90
31113;DHT22;17763;48.730;9.136;2023-03-02T11:17:47;5.10;99.90
31113;DHT22;17763;48.730;9.136;2023-03-02T11:20:22;5.20;99.90
31113;DHT22;17763;48.730;9.136;2023-03-02T11:23:12;5.30;99.90
31113;DHT22;17763;48.730;9.136;2023-03-02T11:25:45;5.30;99.90
31113;DHT22;17763;48.730;9.136;2023-03-02T11:28:39;5.40;99.90
31113;DHT22;17763;48.730;9.136;2023-03-02T11:31:15;5.40;99.90
31113;DHT22;17763;48.730;9.136;2023-03-02T11:36:39;5.50;99.90
31113;DHT22;17763;48.730;9.136;2023-03-02T11:39:12;5.50;99.90
31113;DHT22;17763;48.730;9.136;2023-03-02T11:41:41;5.50;99.90
31113;DHT22;17763;48.730;9.136;2023-03-02T11:44:18;5.60;99.90
31113;DHT22;17763;48.730;9.136;2023-03-02T11:46:54;5.60;99.90
31113;DHT22;17763;48.730;9.136;2023-03-02T11:49:37;5.50;99.90
31113;DHT22;17763;48.730;9.136;2023-03-02T11:52:04;5.50;99.90
31113;DHT22;17763;48.730;9.136;2023-03-02T11:54:41;5.50;99.90
31113;DHT22;17763;48.730;9.136;2023-03-02T11:57:21;5.60;99.90
31113;DHT22;17763;48.730;9.136;2023-03-02T11:59:50;5.60;99.90
31113;DHT22;17763;48.730;9.136;2023-03-02T12:02:19;5.50;99.90
31113;DHT22;17763;48.730;9.136;2023-03-02T12:04:46;5.60;99.90
31113;DHT22;17763;48.730;9.136;2023-03-02T12:09:42;5.60;99.90
31113;DHT22;17763;48.730;9.136;2023-03-02T12:14:58;5.70;99.90
31113;DHT22;17763;48.730;9.136;2023-03-02T12:20:06;5.80;99.90
31113;DHT22;17763;48.730;9.136;2023-03-02T12:22:33;5.90;99.90
31113;DHT22;17763;48.730;9.136;2023-03-02T12:25:24;6.00;99.90
31113;DHT22;17763;48.730;9.136;2023-03-02T12:27:52;6.00;99.90
31113;DHT22;17763;48.730;9.136;2023-03-02T12:30:20;6.00;99.90
31113;DHT22;17763;48.730;9.136;2023-03-02T12:35:30;6.10;99.90
31113;DHT22;17763;48.730;9.136;2023-03-02T12:37:59;6.10;99.90
31113;DHT22;17763;48.730;9.136;2023-03-02T12:40:45;6.10;99.90
31113;DHT22;17763;48.730;9.136;2023-03-02T12:49:16;6.20;99.90
31113;DHT22;17763;48.730;9.136;2023-03-02T12:51:54;6.30;99.90
31113;DHT22;17763;48.730;9.136;2023-03-02T12:54:27;6.30;99.90
31113;DHT22;17763;48.730;9.136;2023-03-02T12:59:30;6.40;99.90
31113;DHT22;17763;48.730;9.136;2023-03-02T13:02:16;6.50;99.90
31113;DHT22;17763;48.730;9.136;2023-03-02T13:04:42;6.60;99.90
31113;DHT22;17763;48.730;9.136;2023-03-02T13:07:20;6.70;99.90
31113;DHT22;17763;48.730;9.136;2023-03-02T13:09:50;6.70;99.90
31113;DHT22;17763;48.730;9.136;2023-03-02T13:12:17;6.80;99.60
31113;DHT22;17763;48.730;9.136;2023-03-02T13:14:48;6.80;99.50
31113;DHT22;17763;48.730;9.136;2023-03-02T13:17:24;6.90;99.60
31113;DHT22;17763;48.730;9.136;2023-03-02T13:19:50;7.00;99.60
31113;DHT22;17763;48.730;9.136;2023-03-02T13:22:17;7.00;99.40
31113;DHT22;17763;48.730;9.136;2023-03-02T13:24:45;7.10;99.10
31113;DHT22;17763;48.730;9.136;2023-03-02T13:27:18;7.20;98.90
31113;DHT22;17763;48.730;9.136;2023-03-02T13:29:48;7.20;98.80
31113;DHT22;17763;48.730;9.136;2023-03-02T13:34:52;7.40;98.80
31113;DHT22;17763;48.730;9.136;2023-03-02T13:39:56;7.60;98.60
31113;DHT22;17763;48.730;9.136;2023-03-02T13:42:26;7.60;98.00
31113;DHT22;17763;48.730;9.136;2023-03-02T13:44:52;7.70;97.60
31113;DHT22;17763;48.730;9.136;2023-03-02T13:47:22;7.80;96.80
31113;DHT22;17763;48.730;9.136;2023-03-02T13:49:48;7.80;96.30
31113;DHT22;17763;48.730;9.136;2023-03-02T13:54:48;8.00;96.90
31113;DHT22;17763;48.730;9.136;2023-03-02T13:57:18;8.10;96.50
31113;DHT22;17763;48.730;9.136;2023-03-02T13:59:50;8.10;96.30
31113;DHT22;17763;48.730;9.136;2023-03-02T14:02:27;8.20;96.40
31113;DHT22;17763;48.730;9.136;2023-03-02T14:04:56;8.30;96.00
31113;DHT22;17763;48.730;9.136;2023-03-02T14:07:22;8.30;95.80
31113;DHT22;17763;48.730;9.136;2023-03-02T14:09:48;8.40;95.50
31113;DHT22;17763;48.730;9.136;2023-03-02T14:12:26;8.50;95.00
31113;DHT22;17763;48.730;9.136;2023-03-02T14:14:54;8.50;94.60
31113;DHT22;17763;48.730;9.136;2023-03-02T14:17:23;8.50;94.10
31113;DHT22;17763;48.730;9.136;2023-03-02T14:19:49;8.60;93.70
31113;DHT22;17763;48.730;9.136;2023-03-02T14:22:28;8.60;93.70
31113;DHT22;17763;48.730;9.136;2023-03-02T14:24:54;8.60;93.60
31113;DHT22;17763;48.730;9.136;2023-03-02T14:27:24;8.70;93.40
31113;DHT22;17763;48.730;9.136;2023-03-02T14:29:51;8.80;93.30
31113;DHT22;17763;48.730;9.136;2023-03-02T14:32:17;8.80;92.80
31113;DHT22;17763;48.730;9.136;2023-03-02T14:34:47;8.90;92.80
31113;DHT22;17763;48.730;9.136;2023-03-02T14:37:18;8.80;92.40
31113;DHT22;17763;48.730;9.136;2023-03-02T14:39:48;8.90;92.30
31113;DHT22;17763;48.730;9.136;2023-03-02T14:42:20;8.90;92.10
31113;DHT22;17763;48.730;9.136;2023-03-02T14:44:48;8.80;92.10
31113;DHT22;17763;48.730;9.136;2023-03-02T14:47:14;8.80;92.30
31113;DHT22;17763;48.730;9.136;2023-03-02T14:49:41;8.80;92.10
31113;DHT22;17763;48.730;9.136;2023-03-02T14:52:30;8.90;91.70
31113;DHT22;17763;48.730;9.136;2023-03-02T14:54:59;8.90;91.80
31113;DHT22;17763;48.730;9.136;2023-03-02T14:57:28;8.80;91.60
31113;DHT22;17763;48.730;9.136;2023-03-02T14:59:56;8.80;91.70
31113;DHT22;17763;48.730;9.136;2023-03-02T15:02:24;8.80;91.80
31113;DHT22;17763;48.730;9.136;2023-03-02T15:04:50;8.90;92.00
31113;DHT22;17763;48.730;9.136;2023-03-02T15:07:19;8.90;92.30
31113;DHT22;17763;48.730;9.136;2023-03-02T15:09:48;8.90;91.90
31113;DHT22;17763;48.730;9.136;2023-03-02T15:12:16;8.90;91.80
31113;DHT22;17763;48.730;9.136;2023-03-02T15:14:42;9.00;91.60
31113;DHT22;17763;48.730;9.136;2023-03-02T15:17:09;9.10;91.40
31113;DHT22;17763;48.730;9.136;2023-03-02T15:19:35;9.00;91.00
31113;DHT22;17763;48.730;9.136;2023-03-02T15:22:00;9.00;91.20
31113;DHT22;17763;48.730;9.136;2023-03-02T15:24:28;9.10;91.30
31113;DHT22;17763;48.730;9.136;2023-03-02T15:26:54;9.10;91.40
31113;DHT22;17763;48.730;9.136;2023-03-02T15:29:24;9.10;91.10
31113;DHT22;17763;48.730;9.136;2023-03-02T15:31:49;9.10;90.90
31113;DHT22;17763;48.730;9.136;2023-03-02T15:34:15;9.10;90.70
31113;DHT22;17763;48.730;9.136;2023-03-02T15:36:41;9.10;91.00
31113;DHT22;17763;48.730;9.136;2023-03-02T15:39:10;9.10;90.90
31113;DHT22;17763;48.730;9.136;2023-03-02T15:41:36;9.10;90.90
31113;DHT22;17763;48.730;9.136;2023-03-02T15:44:02;9.10;90.80
31113;DHT22;17763;48.730;9.136;2023-03-02T15:46:28;9.10;90.60
31113;DHT22;17763;48.730;9.136;2023-03-02T15:48:53;9.10;90.80
31113;DHT22;17763;48.730;9.136;2023-03-02T15:51:19;9.10;90.70
31113;DHT22;17763;48.730;9.136;2023-03-02T15:53:45;9.10;90.80
31113;DHT22;17763;48.730;9.136;2023-03-02T15:56:12;9.10;90.80
31113;DHT22;17763;48.730;9.136;2023-03-02T15:58:44;9.10;90.80
31113;DHT22;17763;48.730;9.136;2023-03-02T16:01:10;9.10;90.50
31113;DHT22;17763;48.730;9.136;2023-03-02T16:03:36;9.10;90.30
31113;DHT22;17763;48.730;9.136;2023-03-02T16:06:04;9.10;90.40
31113;DHT22;17763;48.730;9.136;2023-03-02T16:08:31;9.10;90.40
31113;DHT22;17763;48.730;9.136;2023-03-02T16:11:05;9.10;90.50
31113;DHT22;17763;48.730;9.136;2023-03-02T16:13:31;9.10;90.50
31113;DHT22;17763;48.730;9.136;2023-03-02T16:16:01;9.10;90.40
31113;DHT22;17763;48.730;9.136;2023-03-02T16:18:27;9.10;90.50
31113;DHT22;17763;48.730;9.136;2023-03-02T16:20:58;9.00;90.40
31113;DHT22;17763;48.730;9.136;2023-03-02T16:23:26;9.00;90.40
31113;DHT22;17763;48.730;9.136;2023-03-02T16:25:51;9.00;90.40
31113;DHT22;17763;48.730;9.136;2023-03-02T16:28:18;9.00;90.40
31113;DHT22;17763;48.730;9.136;2023-03-02T16:30:44;9.00;90.30
31113;DHT22;17763;48.730;9.136;2023-03-02T16:33:16;9.00;90.30
31113;DHT22;17763;48.730;9.136;2023-03-02T16:35:42;8.90;90.30
31113;DHT22;17763;48.730;9.136;2023-03-02T16:38:08;8.90;90.30
31113;DHT22;17763;48.730;9.136;2023-03-02T16:40:35;8.80;90.30
31113;DHT22;17763;48.730;9.136;2023-03-02T16:43:01;8.80;90.40
31113;DHT22;17763;48.730;9.136;2023-03-02T16:45:26;8.70;90.40
31113;DHT22;17763;48.730;9.136;2023-03-02T16:47:52;8.70;90.40
31113;DHT22;17763;48.730;9.136;2023-03-02T16:50:18;8.70;90.50
31113;DHT22;17763;48.730;9.136;2023-03-02T16:52:43;8.60;90.50
31113;DHT22;17763;48.730;9.136;2023-03-02T16:55:13;8.50;90.60
31113;DHT22;17763;48.730;9.136;2023-03-02T16:57:42;8.40;90.60
31113;DHT22;17763;48.730;9.136;2023-03-02T17:00:12;8.40;90.70
31113;DHT22;17763;48.730;9.136;2023-03-02T17:02:39;8.30;90.80